sensor_id;sensor_type;location;lat;lon;timestamp;temperature;humidity
41924;DHT22;27613;48.116;11.656;2023-04-29T00:00:23;9.60;99.90
41924;DHT22;27613;48.116;11.656;2023-04-29T00:02:49;9.60;99.90
41924;DHT22;27613;48.116;11.656;2023-04-29T00:05:15;9.60;99.90
41924;DHT22;27613;48.116;11.656;2023-04-29T00:07:40;9.60;99.90
41924;DHT22;27613;48.116;11.656;2023-04-29T00:10:07;9.50;99.90
41924;DHT22;27613;48.116;11.656;2023-04-29T00:12:33;9.50;99.90
41924;DHT22;27613;48.116;11.656;2023-04-29T00:14:58;9.50;99.90
41924;DHT22;27613;48.116;11.656;2023-04-29T00:17:25;9.50;99.90
41924;DHT22;27613;48.116;11.656;2023-04-29T00:19:50;9.50;99.90
41924;DHT22;27613;48.116;11.656;2023-04-29T00:22:16;9.50;99.90
41924;DHT22;27613;48.116;11.656;2023-04-29T00:24:42;9.50;99.90
41924;DHT22;27613;48.116;11.656;2023-04-29T00:27:07;9.50;99.90
41924;DHT22;27613;48.116;11.656;2023-04-29T00:29:33;9.50;99.90
41924;DHT22;27613;48.116;11.656;2023-04-29T00:31:58;9.50;99.90
41924;DHT22;27613;48.116;11.656;2023-04-29T00:34:24;9.50;99.90
41924;DHT22;27613;48.116;11.656;2023-04-29T00:36:49;9.50;99.90
41924;DHT22;27613;48.116;11.656;2023-04-29T00:39:15;9.40;99.90
41924;DHT22;27613;48.116;11.656;2023-04-29T00:41:41;9.50;99.90
41924;DHT22;27613;48.116;11.656;2023-04-29T00:44:06;9.50;99.90
41924;DHT22;27613;48.116;11.656;2023-04-29T00:46:32;9.50;99.90
41924;DHT22;27613;48.116;11.656;2023-04-29T00:48:59;9.60;99.90
41924;DHT22;27613;48.116;11.656;2023-04-29T00:51:25;9.60;99.90
41924;DHT22;27613;48.116;11.656;2023-04-29T00:53:51;9.60;99.90
41924;DHT22;27613;48.116;11.656;2023-04-29T00:56:17;9.70;99.90
41924;DHT22;27613;48.116;11.656;2023-04-29T00:58:45;9.70;99.90
41924;DHT22;27613;48.116;11.656;2023-04-29T01:01:18;9.80;99.90
41924;DHT22;27613;48.116;11.656;2023-04-29T01:03:44;9.80;99.90
41924;DHT22;27613;48.116;11.656;2023-04-29T01:06:33;9.80;99.90
41924;DHT22;27613;48.116;11.656;2023-04-29T01:09:20;9.90;99.90
41924;DHT22;27613;48.116;11.656;2023-04-29T01:12:19;9.90;99.90
41924;DHT22;27613;48.116;11.656;2023-04-29T01:15:02;9.80;99.90
41924;DHT22;27613;48.116;11.656;2023-04-29T01:17:32;9.90;99.90
41924;DHT22;27613;48.116;11.656;2023-04-29T01:20:01;9.90;99.90
41924;DHT22;27613;48.116;11.656;2023-04-29T01:22:26;9.90;99.90
41924;DHT22;27613;48.116;11.656;2023-04-29T01:24:52;9.90;99.90
41924;DHT22;27613;48.116;11.656;2023-04-29T01:27:32;9.90;99.90
41924;DHT22;27613;48.116;11.656;2023-04-29T01:30:05;9.90;99.90
41924;DHT22;27613;48.116;11.656;2023-04-29T01:35:09;10.10;99.90
41924;DHT22;27613;48.116;11.656;2023-04-29T01:38:02;10.00;99.90
41924;DHT22;27613;48.116;11.656;2023-04-29T01:40:39;10.00;99.90
41924;DHT22;27613;48.116;11.656;2023-04-29T01:43:07;10.00;99.90
41924;DHT22;27613;48.116;11.656;2023-04-29T01:45:37;10.00;99.90
41924;DHT22;27613;48.116;11.656;2023-04-29T01:48:06;9.90;99.90
41924;DHT22;27613;48.116;11.656;2023-04-29T01:50:32;10.00;99.90
41924;DHT22;27613;48.116;11.656;2023-04-29T01:52:57;9.90;99.90
41924;DHT22;27613;48.116;11.656;2023-04-29T01:55:23;9.90;99.90
41924;DHT22;27613;48.116;11.656;2023-04-29T01:57:48;10.00;99.90
41924;DHT22;27613;48.116;11.656;2023-04-29T02:00:14;9.90;99.90
41924;DHT22;27613;48.116;11.656;2023-04-29T02:02:39;9.90;99.90
41924;DHT22;27613;48.116;11.656;2023-04-29T02:05:05;10.00;99.90
41924;DHT22;27613;48.116;11.656;2023-04-29T02:07:31;9.90;99.90
41924;DHT22;27613;48.116;11.656;2023-04-29T02:09:57;9.90;99.90
41924;DHT22;27613;48.116;11.656;2023-04-29T02:12:22;9.90;99.90
41924;DHT22;27613;48.116;11.656;2023-04-29T02:14:51;10.00;99.90
41924;DHT22;27613;48.116;11.656;2023-04-29T02:17:17;10.00;99.90
41924;DHT22;27613;48.116;11.656;2023-04-29T02:19:42;10.00;99.90
41924;DHT22;27613;48.116;11.656;2023-04-29T02:22:08;10.00;99.90
41924;DHT22;27613;48.116;11.656;2023-04-29T02:24:36;10.00;99.90
41924;DHT22;27613;48.116;11.656;2023-04-29T02:27:02;10.10;99.90
41924;DHT22;27613;48.116;11.656;2023-04-29T02:29:30;10.00;99.90
41924;DHT22;27613;48.116;11.656;2023-04-29T02:31:56;10.10;99.90
41924;DHT22;27613;48.116;11.656;2023-04-29T02:34:21;10.10;99.90
41924;DHT22;27613;48.116;11.656;2023-04-29T02:36:48;10.00;99.90
41924;DHT22;27613;48.116;11.656;2023-04-29T02:39:14;10.00;99.90
41924;DHT22;27613;48.116;11.656;2023-04-29T02:41:39;10.00;99.90
41924;DHT22;27613;48.116;11.656;2023-04-29T02:44:06;9.90;99.90
41924;DHT22;27613;48.116;11.656;2023-04-29T02:46:32;10.00;99.90
41924;DHT22;27613;48.116;11.656;2023-04-29T02:48:59;9.90;99.90
41924;DHT22;27613;48.116;11.656;2023-04-29T02:51:26;9.90;99.90
41924;DHT22;27613;48.116;11.656;2023-04-29T02:53:52;9.90;99.90
41924;DHT22;27613;48.116;11.656;2023-04-29T02:56:17;9.90;99.90
41924;DHT22;27613;48.116;11.656;2023-04-29T02:58:43;9.90;99.90
41924;DHT22;27613;48.116;11.656;2023-04-29T03:01:08;9.80;99.90
41924;DHT22;27613;48.116;11.656;2023-04-29T03:03:34;9.90;99.90
41924;DHT22;27613;48.116;11.656;2023-04-29T03:06:00;9.90;99.90
41924;DHT22;27613;48.116;11.656;2023-04-29T03:08:25;9.80;99.90
41924;DHT22;27613;48.116;11.656;2023-04-29T03:10:51;9.80;99.90
41924;DHT22;27613;48.116;11.656;2023-04-29T03:13:16;9.90;99.90
41924;DHT22;27613;48.116;11.656;2023-04-29T03:15:42;9.80;99.90
41924;DHT22;27613;48.116;11.656;2023-04-29T03:18:08;9.70;99.90
41924;DHT22;27613;48.116;11.656;2023-04-29T03:20:34;9.90;99.90
41924;DHT22;27613;48.116;11.656;2023-04-29T03:23:00;9.90;99.90
41924;DHT22;27613;48.116;11.656;2023-04-29T03:25:26;9.90;99.90
41924;DHT22;27613;48.116;11.656;2023-04-29T03:27:52;9.90;99.90
41924;DHT22;27613;48.116;11.656;2023-04-29T03:30:18;10.00;99.90
41924;DHT22;27613;48.116;11.656;2023-04-29T03:32:43;10.00;99.90
41924;DHT22;27613;48.116;11.656;2023-04-29T03:35:09;10.00;99.90
41924;DHT22;27613;48.116;11.656;2023-04-29T03:37:36;10.00;99.90
41924;DHT22;27613;48.116;11.656;2023-04-29T03:40:01;10.10;99.90
41924;DHT22;27613;48.116;11.656;2023-04-29T03:42:27;10.10;99.90
41924;DHT22;27613;48.116;11.656;2023-04-29T03:44:52;10.00;99.90
41924;DHT22;27613;48.116;11.656;2023-04-29T03:47:18;10.00;99.90
41924;DHT22;27613;48.116;11.656;2023-04-29T03:49:44;10.10;99.90
41924;DHT22;27613;48.116;11.656;2023-04-29T03:52:10;10.10;99.90
41924;DHT22;27613;48.116;11.656;2023-04-29T03:54:36;10.20;99.90
41924;DHT22;27613;48.116;11.656;2023-04-29T03:57:02;10.20;99.90
41924;DHT22;27613;48.116;11.656;2023-04-29T03:59:27;10.20;99.90
41924;DHT22;27613;48.116;11.656;2023-04-29T04:01:53;10.10;99.90
41924;DHT22;27613;48.116;11.656;2023-04-29T04:04:18;10.10;99.90
41924;DHT22;27613;48.116;11.656;2023-04-29T04:06:44;10.20;99.90
41924;DHT22;27613;48.116;11.656;2023-04-29T04:09:15;10.10;99.90
41924;DHT22;27613;48.116;11.656;2023-04-29T04:11:40;10.10;99.90
41924;DHT22;27613;48.116;11.656;2023-04-29T04:14:06;10.10;99.90
41924;DHT22;27613;48.116;11.656;2023-04-29T04:16:32;10.10;99.90
41924;DHT22;27613;48.116;11.656;2023-04-29T04:18:57;10.10;99.90
41924;DHT22;27613;48.116;11.656;2023-04-29T04:21:23;10.10;99.90
41924;DHT22;27613;48.116;11.656;2023-04-29T04:23:49;10.10;99.90
41924;DHT22;27613;48.116;11.656;2023-04-29T04:26:15;10.20;99.90
41924;DHT22;27613;48.116;11.656;2023-04-29T04:28:41;10.20;99.90
41924;DHT22;27613;48.116;11.656;2023-04-29T04:31:06;10.20;99.90
41924;DHT22;27613;48.116;11.656;2023-04-29T04:33:32;10.20;99.90
41924;DHT22;27613;48.116;11.656;2023-04-29T04:35:58;10.30;99.90
41924;DHT22;27613;48.116;11.656;2023-04-29T04:38:24;10.30;99.90
41924;DHT22;27613;48.116;11.656;2023-04-29T04:40:50;10.30;99.90
41924;DHT22;27613;48.116;11.656;2023-04-29T04:43:16;10.30;99.90
41924;DHT22;27613;48.116;11.656;2023-04-29T04:45:42;10.40;99.90
41924;DHT22;27613;48.116;11.656;2023-04-29T04:48:07;10.40;99.90
41924;DHT22;27613;48.116;11.656;2023-04-29T04:50:33;10.40;99.90
41924;DHT22;27613;48.116;11.656;2023-04-29T04:52:58;10.40;99.90
41924;DHT22;27613;48.116;11.656;2023-04-29T04:55:24;10.40;99.90
41924;DHT22;27613;48.116;11.656;2023-04-29T04:57:50;10.50;99.90
41924;DHT22;27613;48.116;11.656;2023-04-29T05:00:16;10.50;99.90
41924;DHT22;27613;48.116;11.656;2023-04-29T05:02:41;10.60;99.90
41924;DHT22;27613;48.116;11.656;2023-04-29T05:05:07;10.60;99.90
41924;DHT22;27613;48.116;11.656;2023-04-29T05:07:33;10.70;99.90
41924;DHT22;27613;48.116;11.656;2023-04-29T05:10:02;10.80;99.90
41924;DHT22;27613;48.116;11.656;2023-04-29T05:12:28;10.90;99.90
41924;DHT22;27613;48.116;11.656;2023-04-29T05:14:55;10.90;99.90
41924;DHT22;27613;48.116;11.656;2023-04-29T05:17:21;10.90;99.90
41924;DHT22;27613;48.116;11.656;2023-04-29T05:19:46;11.00;99.90
41924;DHT22;27613;48.116;11.656;2023-04-29T05:22:12;11.00;99.90
41924;DHT22;27613;48.116;11.656;2023-04-29T05:24:37;11.10;99.90
41924;DHT22;27613;48.116;11.656;2023-04-29T05:27:03;11.20;99.90
41924;DHT22;27613;48.116;11.656;2023-04-29T05:29:29;11.20;99.90
41924;DHT22;27613;48.116;11.656;2023-04-29T05:31:55;11.20;99.90
41924;DHT22;27613;48.116;11.656;2023-04-29T05:34:20;11.30;99.90
41924;DHT22;27613;48.116;11.656;2023-04-29T05:36:46;11.40;99.90
41924;DHT22;27613;48.116;11.656;2023-04-29T05:39:11;11.50;99.90
41924;DHT22;27613;48.116;11.656;2023-04-29T05:41:37;11.50;99.90
41924;DHT22;27613;48.116;11.656;2023-04-29T05:44:02;11.60;99.90
41924;DHT22;27613;48.116;11.656;2023-04-29T05:46:28;11.70;99.90
41924;DHT22;27613;48.116;11.656;2023-04-29T05:48:53;11.90;99.90
41924;DHT22;27613;48.116;11.656;2023-04-29T05:51:19;11.90;99.90
41924;DHT22;27613;48.116;11.656;2023-04-29T05:53:44;12.00;99.90
41924;DHT22;27613;48.116;11.656;2023-04-29T05:56:10;12.10;99.90
41924;DHT22;27613;48.116;11.656;2023-04-29T05:58:35;12.20;99.90
41924;DHT22;27613;48.116;11.656;2023-04-29T06:01:01;12.20;99.90
41924;DHT22;27613;48.116;11.656;2023-04-29T06:03:27;12.30;99.90
41924;DHT22;27613;48.116;11.656;2023-04-29T06:05:53;12.40;99.90
41924;DHT22;27613;48.116;11.656;2023-04-29T06:08:19;12.30;99.90
41924;DHT22;27613;48.116;11.656;2023-04-29T06:10:45;12.40;99.90
41924;DHT22;27613;48.116;11.656;2023-04-29T06:13:11;12.40;99.90
41924;DHT22;27613;48.116;11.656;2023-04-29T06:15:37;12.50;99.90
41924;DHT22;27613;48.116;11.656;2023-04-29T06:18:02;12.50;99.90
41924;DHT22;27613;48.116;11.656;2023-04-29T06:20:28;12.60;99.90
41924;DHT22;27613;48.116;11.656;2023-04-29T06:22:53;12.60;99.90
41924;DHT22;27613;48.116;11.656;2023-04-29T06:25:19;12.80;99.90
41924;DHT22;27613;48.116;11.656;2023-04-29T06:27:45;12.90;99.90
41924;DHT22;27613;48.116;11.656;2023-04-29T06:30:10;12.80;99.90
41924;DHT22;27613;48.116;11.656;2023-04-29T06:32:38;12.90;99.90
41924;DHT22;27613;48.116;11.656;2023-04-29T06:35:03;13.00;99.90
41924;DHT22;27613;48.116;11.656;2023-04-29T06:37:29;13.20;99.90
41924;DHT22;27613;48.116;11.656;2023-04-29T06:39:54;13.30;99.90
41924;DHT22;27613;48.116;11.656;2023-04-29T06:42:20;13.40;99.90
41924;DHT22;27613;48.116;11.656;2023-04-29T06:44:46;13.50;99.90
41924;DHT22;27613;48.116;11.656;2023-04-29T06:47:11;13.40;99.90
41924;DHT22;27613;48.116;11.656;2023-04-29T06:49:37;13.50;99.90
41924;DHT22;27613;48.116;11.656;2023-04-29T06:52:03;13.40;99.90
41924;DHT22;27613;48.116;11.656;2023-04-29T06:54:29;13.50;99.90
41924;DHT22;27613;48.116;11.656;2023-04-29T06:56:54;13.60;99.90
41924;DHT22;27613;48.116;11.656;2023-04-29T06:59:20;13.70;99.90
41924;DHT22;27613;48.116;11.656;2023-04-29T07:01:45;14.00;99.90
41924;DHT22;27613;48.116;11.656;2023-04-29T07:04:11;14.00;99.90
41924;DHT22;27613;48.116;11.656;2023-04-29T07:06:37;14.00;99.90
41924;DHT22;27613;48.116;11.656;2023-04-29T07:09:02;13.90;99.90
41924;DHT22;27613;48.116;11.656;2023-04-29T07:11:28;13.90;99.90
41924;DHT22;27613;48.116;11.656;2023-04-29T07:13:53;13.80;99.90
41924;DHT22;27613;48.116;11.656;2023-04-29T07:16:19;13.60;99.90
41924;DHT22;27613;48.116;11.656;2023-04-29T07:18:47;13.60;99.90
41924;DHT22;27613;48.116;11.656;2023-04-29T07:21:13;13.60;99.90
41924;DHT22;27613;48.116;11.656;2023-04-29T07:23:38;13.60;99.90
41924;DHT22;27613;48.116;11.656;2023-04-29T07:26:14;13.70;99.90
41924;DHT22;27613;48.116;11.656;2023-04-29T07:28:41;14.00;99.90
41924;DHT22;27613;48.116;11.656;2023-04-29T07:31:07;14.10;99.90
41924;DHT22;27613;48.116;11.656;2023-04-29T07:33:33;14.10;99.90
41924;DHT22;27613;48.116;11.656;2023-04-29T07:35:59;14.20;99.90
41924;DHT22;27613;48.116;11.656;2023-04-29T07:38:25;14.10;99.90
41924;DHT22;27613;48.116;11.656;2023-04-29T07:40:50;14.20;99.90
41924;DHT22;27613;48.116;11.656;2023-04-29T07:43:16;14.30;99.90
41924;DHT22;27613;48.116;11.656;2023-04-29T07:45:42;14.60;99.90
41924;DHT22;27613;48.116;11.656;2023-04-29T07:48:07;14.80;99.90
41924;DHT22;27613;48.116;11.656;2023-04-29T07:50:34;15.00;99.90
41924;DHT22;27613;48.116;11.656;2023-04-29T07:53:01;15.30;99.90
41924;DHT22;27613;48.116;11.656;2023-04-29T07:55:27;15.40;99.90
41924;DHT22;27613;48.116;11.656;2023-04-29T07:57:54;15.30;99.90
41924;DHT22;27613;48.116;11.656;2023-04-29T08:00:20;15.40;99.90
41924;DHT22;27613;48.116;11.656;2023-04-29T08:02:49;15.50;99.90
41924;DHT22;27613;48.116;11.656;2023-04-29T08:05:15;15.40;99.90
41924;DHT22;27613;48.116;11.656;2023-04-29T08:07:40;15.60;99.90
41924;DHT22;27613;48.116;11.656;2023-04-29T08:10:06;15.60;99.90
41924;DHT22;27613;48.116;11.656;2023-04-29T08:12:32;15.70;99.90
41924;DHT22;27613;48.116;11.656;2023-04-29T08:14:58;15.90;99.90
41924;DHT22;27613;48.116;11.656;2023-04-29T08:17:24;16.20;99.90
41924;DHT22;27613;48.116;11.656;2023-04-29T08:19:49;16.30;99.90
41924;DHT22;27613;48.116;11.656;2023-04-29T08:22:15;16.20;99.90
41924;DHT22;27613;48.116;11.656;2023-04-29T08:24:41;16.40;99.90
41924;DHT22;27613;48.116;11.656;2023-04-29T08:27:07;16.80;99.90
41924;DHT22;27613;48.116;11.656;2023-04-29T08:29:33;17.20;99.90
41924;DHT22;27613;48.116;11.656;2023-04-29T08:31:59;17.30;99.90
41924;DHT22;27613;48.116;11.656;2023-04-29T08:34:24;17.30;99.90
41924;DHT22;27613;48.116;11.656;2023-04-29T08:36:51;16.90;99.90
41924;DHT22;27613;48.116;11.656;2023-04-29T08:39:16;16.50;99.90
41924;DHT22;27613;48.116;11.656;2023-04-29T08:41:42;16.00;99.90
41924;DHT22;27613;48.116;11.656;2023-04-29T08:44:13;15.80;99.90
41924;DHT22;27613;48.116;11.656;2023-04-29T08:46:39;15.70;99.90
41924;DHT22;27613;48.116;11.656;2023-04-29T08:49:06;15.60;99.90
41924;DHT22;27613;48.116;11.656;2023-04-29T08:51:31;15.40;99.90
41924;DHT22;27613;48.116;11.656;2023-04-29T08:53:58;15.20;99.90
41924;DHT22;27613;48.116;11.656;2023-04-29T08:56:23;15.00;99.90
41924;DHT22;27613;48.116;11.656;2023-04-29T08:58:50;16.30;99.90
41924;DHT22;27613;48.116;11.656;2023-04-29T09:01:24;17.70;99.90
41924;DHT22;27613;48.116;11.656;2023-04-29T09:06:26;19.30;95.90
41924;DHT22;27613;48.116;11.656;2023-04-29T09:08:51;20.10;90.50
41924;DHT22;27613;48.116;11.656;2023-04-29T09:11:18;20.70;87.40
41924;DHT22;27613;48.116;11.656;2023-04-29T09:13:44;21.10;85.90
41924;DHT22;27613;48.116;11.656;2023-04-29T09:16:10;22.60;80.90
41924;DHT22;27613;48.116;11.656;2023-04-29T09:18:47;21.50;79.80
41924;DHT22;27613;48.116;11.656;2023-04-29T09:21:33;21.50;79.70
41924;DHT22;27613;48.116;11.656;2023-04-29T09:24:00;21.30;80.50
41924;DHT22;27613;48.116;11.656;2023-04-29T09:26:26;20.80;81.20
41924;DHT22;27613;48.116;11.656;2023-04-29T09:29:09;19.50;84.40
41924;DHT22;27613;48.116;11.656;2023-04-29T09:31:39;19.10;87.10
41924;DHT22;27613;48.116;11.656;2023-04-29T09:34:04;19.10;87.80
41924;DHT22;27613;48.116;11.656;2023-04-29T09:36:47;20.70;85.40
41924;DHT22;27613;48.116;11.656;2023-04-29T09:39:18;21.70;78.20
41924;DHT22;27613;48.116;11.656;2023-04-29T09:44:20;19.80;77.40
41924;DHT22;27613;48.116;11.656;2023-04-29T09:49:29;19.40;84.60
41924;DHT22;27613;48.116;11.656;2023-04-29T09:51:57;20.20;81.30
41924;DHT22;27613;48.116;11.656;2023-04-29T09:54:25;19.50;83.00
41924;DHT22;27613;48.116;11.656;2023-04-29T09:56:54;18.90;84.30
41924;DHT22;27613;48.116;11.656;2023-04-29T09:59:20;18.30;87.80
41924;DHT22;27613;48.116;11.656;2023-04-29T10:01:47;19.10;84.50
41924;DHT22;27613;48.116;11.656;2023-04-29T10:04:15;20.80;77.90
41924;DHT22;27613;48.116;11.656;2023-04-29T10:06:41;22.00;74.70
41924;DHT22;27613;48.116;11.656;2023-04-29T10:09:10;23.90;68.70
41924;DHT22;27613;48.116;11.656;2023-04-29T10:11:39;24.40;66.30
41924;DHT22;27613;48.116;11.656;2023-04-29T10:14:04;24.30;64.10
41924;DHT22;27613;48.116;11.656;2023-04-29T10:16:33;24.00;65.60
41924;DHT22;27613;48.116;11.656;2023-04-29T10:19:06;24.40;64.50
41924;DHT22;27613;48.116;11.656;2023-04-29T10:21:35;25.60;64.30
41924;DHT22;27613;48.116;11.656;2023-04-29T10:24:02;25.30;61.00
41924;DHT22;27613;48.116;11.656;2023-04-29T10:26:29;25.00;62.50
41924;DHT22;27613;48.116;11.656;2023-04-29T10:28:57;23.20;66.10
41924;DHT22;27613;48.116;11.656;2023-04-29T10:31:27;21.40;74.90
41924;DHT22;27613;48.116;11.656;2023-04-29T10:33:55;19.70;81.40
41924;DHT22;27613;48.116;11.656;2023-04-29T10:36:22;19.40;85.90
41924;DHT22;27613;48.116;11.656;2023-04-29T10:38:51;19.70;84.70
41924;DHT22;27613;48.116;11.656;2023-04-29T10:41:20;19.60;85.40
41924;DHT22;27613;48.116;11.656;2023-04-29T10:43:49;19.30;85.00
41924;DHT22;27613;48.116;11.656;2023-04-29T10:48:42;20.20;83.00
41924;DHT22;27613;48.116;11.656;2023-04-29T10:51:08;21.50;77.20
41924;DHT22;27613;48.116;11.656;2023-04-29T10:53:34;20.80;78.70
41924;DHT22;27613;48.116;11.656;2023-04-29T10:56:18;20.30;81.70
41924;DHT22;27613;48.116;11.656;2023-04-29T10:58:44;20.80;81.30
41924;DHT22;27613;48.116;11.656;2023-04-29T11:01:12;23.40;77.50
41924;DHT22;27613;48.116;11.656;2023-04-29T11:03:57;25.00;67.60
41924;DHT22;27613;48.116;11.656;2023-04-29T11:06:41;24.50;63.20
41924;DHT22;27613;48.116;11.656;2023-04-29T11:09:17;24.50;62.90
41924;DHT22;27613;48.116;11.656;2023-04-29T11:11:44;23.10;65.30
41924;DHT22;27613;48.116;11.656;2023-04-29T11:14:11;21.50;69.50
41924;DHT22;27613;48.116;11.656;2023-04-29T11:19:33;19.50;78.20
41924;DHT22;27613;48.116;11.656;2023-04-29T11:22:10;20.20;75.80
41924;DHT22;27613;48.116;11.656;2023-04-29T11:24:47;21.20;74.30
41924;DHT22;27613;48.116;11.656;2023-04-29T11:27:14;20.90;74.10
41924;DHT22;27613;48.116;11.656;2023-04-29T11:29:40;22.70;70.10
41924;DHT22;27613;48.116;11.656;2023-04-29T11:32:06;24.90;63.80
41924;DHT22;27613;48.116;11.656;2023-04-29T11:34:32;25.70;61.40
41924;DHT22;27613;48.116;11.656;2023-04-29T11:36:57;26.80;60.00
41924;DHT22;27613;48.116;11.656;2023-04-29T11:39:23;27.30;56.20
41924;DHT22;27613;48.116;11.656;2023-04-29T11:41:49;26.50;58.70
41924;DHT22;27613;48.116;11.656;2023-04-29T11:44:20;24.40;62.30
41924;DHT22;27613;48.116;11.656;2023-04-29T11:46:47;22.50;64.90
41924;DHT22;27613;48.116;11.656;2023-04-29T11:49:13;21.40;67.80
41924;DHT22;27613;48.116;11.656;2023-04-29T11:51:39;20.20;71.00
41924;DHT22;27613;48.116;11.656;2023-04-29T11:54:06;21.10;68.50
41924;DHT22;27613;48.116;11.656;2023-04-29T11:56:31;22.30;67.20
41924;DHT22;27613;48.116;11.656;2023-04-29T11:58:57;24.20;62.40
41924;DHT22;27613;48.116;11.656;2023-04-29T12:01:24;23.50;64.60
41924;DHT22;27613;48.116;11.656;2023-04-29T12:03:50;23.90;60.40
41924;DHT22;27613;48.116;11.656;2023-04-29T12:06:15;23.10;62.30
41924;DHT22;27613;48.116;11.656;2023-04-29T12:08:41;22.00;63.60
41924;DHT22;27613;48.116;11.656;2023-04-29T12:11:06;21.80;64.40
41924;DHT22;27613;48.116;11.656;2023-04-29T12:13:33;20.80;66.00
41924;DHT22;27613;48.116;11.656;2023-04-29T12:16:02;20.70;68.10
41924;DHT22;27613;48.116;11.656;2023-04-29T12:18:28;20.30;68.90
41924;DHT22;27613;48.116;11.656;2023-04-29T12:20:55;21.80;64.40
41924;DHT22;27613;48.116;11.656;2023-04-29T12:23:22;23.30;61.70
41924;DHT22;27613;48.116;11.656;2023-04-29T12:25:53;23.40;61.40
41924;DHT22;27613;48.116;11.656;2023-04-29T12:28:20;23.40;59.90
41924;DHT22;27613;48.116;11.656;2023-04-29T12:30:50;22.60;61.10
41924;DHT22;27613;48.116;11.656;2023-04-29T12:33:26;22.30;62.20
41924;DHT22;27613;48.116;11.656;2023-04-29T12:35:56;22.30;64.30
41924;DHT22;27613;48.116;11.656;2023-04-29T12:38:31;23.80;58.30
41924;DHT22;27613;48.116;11.656;2023-04-29T12:41:00;24.20;57.60
41924;DHT22;27613;48.116;11.656;2023-04-29T12:43:27;23.60;59.00
41924;DHT22;27613;48.116;11.656;2023-04-29T12:45:57;23.10;59.40
41924;DHT22;27613;48.116;11.656;2023-04-29T12:48:31;21.90;61.80
41924;DHT22;27613;48.116;11.656;2023-04-29T12:50:57;20.80;65.40
41924;DHT22;27613;48.116;11.656;2023-04-29T12:53:25;22.00;63.20
41924;DHT22;27613;48.116;11.656;2023-04-29T12:55:50;21.80;62.90
41924;DHT22;27613;48.116;11.656;2023-04-29T12:58:16;21.80;64.10
41924;DHT22;27613;48.116;11.656;2023-04-29T13:00:42;21.90;63.00
41924;DHT22;27613;48.116;11.656;2023-04-29T13:03:07;21.70;63.60
41924;DHT22;27613;48.116;11.656;2023-04-29T13:05:33;22.30;64.10
41924;DHT22;27613;48.116;11.656;2023-04-29T13:07:59;22.70;62.40
41924;DHT22;27613;48.116;11.656;2023-04-29T13:10:24;22.80;60.70
41924;DHT22;27613;48.116;11.656;2023-04-29T13:12:50;23.00;61.60
41924;DHT22;27613;48.116;11.656;2023-04-29T13:15:16;24.40;60.50
41924;DHT22;27613;48.116;11.656;2023-04-29T13:17:42;23.10;59.80
41924;DHT22;27613;48.116;11.656;2023-04-29T13:20:07;23.20;58.30
41924;DHT22;27613;48.116;11.656;2023-04-29T13:22:36;24.30;59.00
41924;DHT22;27613;48.116;11.656;2023-04-29T13:25:01;23.30;59.60
41924;DHT22;27613;48.116;11.656;2023-04-29T13:27:28;23.10;60.20
41924;DHT22;27613;48.116;11.656;2023-04-29T13:29:53;23.20;60.00
41924;DHT22;27613;48.116;11.656;2023-04-29T13:32:21;24.80;58.60
41924;DHT22;27613;48.116;11.656;2023-04-29T13:34:51;26.00;54.60
41924;DHT22;27613;48.116;11.656;2023-04-29T13:37:17;25.40;53.50
41924;DHT22;27613;48.116;11.656;2023-04-29T13:39:44;25.30;54.30
41924;DHT22;27613;48.116;11.656;2023-04-29T13:42:09;24.60;55.30
41924;DHT22;27613;48.116;11.656;2023-04-29T13:44:35;23.10;56.80
41924;DHT22;27613;48.116;11.656;2023-04-29T13:47:01;22.80;59.70
41924;DHT22;27613;48.116;11.656;2023-04-29T13:49:27;24.20;55.50
41924;DHT22;27613;48.116;11.656;2023-04-29T13:51:53;25.10;54.60
41924;DHT22;27613;48.116;11.656;2023-04-29T13:54:18;24.90;56.00
41924;DHT22;27613;48.116;11.656;2023-04-29T13:56:46;25.40;55.50
41924;DHT22;27613;48.116;11.656;2023-04-29T13:59:12;25.10;54.20
41924;DHT22;27613;48.116;11.656;2023-04-29T14:01:37;24.00;56.30
41924;DHT22;27613;48.116;11.656;2023-04-29T14:04:03;25.20;53.90
41924;DHT22;27613;48.116;11.656;2023-04-29T14:06:28;25.40;53.30
41924;DHT22;27613;48.116;11.656;2023-04-29T14:08:56;25.90;52.10
41924;DHT22;27613;48.116;11.656;2023-04-29T14:11:22;26.30;52.10
41924;DHT22;27613;48.116;11.656;2023-04-29T14:13:47;24.90;53.20
41924;DHT22;27613;48.116;11.656;2023-04-29T14:16:13;25.20;53.80
41924;DHT22;27613;48.116;11.656;2023-04-29T14:18:38;24.90;53.50
41924;DHT22;27613;48.116;11.656;2023-04-29T14:21:04;24.80;53.00
41924;DHT22;27613;48.116;11.656;2023-04-29T14:23:30;24.60;55.60
41924;DHT22;27613;48.116;11.656;2023-04-29T14:25:55;23.90;57.10
41924;DHT22;27613;48.116;11.656;2023-04-29T14:28:21;23.20;58.20
41924;DHT22;27613;48.116;11.656;2023-04-29T14:30:46;23.90;57.20
41924;DHT22;27613;48.116;11.656;2023-04-29T14:33:12;25.30;55.50
41924;DHT22;27613;48.116;11.656;2023-04-29T14:35:37;24.20;56.30
41924;DHT22;27613;48.116;11.656;2023-04-29T14:38:03;23.30;57.70
41924;DHT22;27613;48.116;11.656;2023-04-29T14:40:28;23.20;59.50
41924;DHT22;27613;48.116;11.656;2023-04-29T14:42:54;23.00;60.30
41924;DHT22;27613;48.116;11.656;2023-04-29T14:45:19;25.10;56.60
41924;DHT22;27613;48.116;11.656;2023-04-29T14:47:45;25.80;54.30
41924;DHT22;27613;48.116;11.656;2023-04-29T14:50:11;25.30;54.40
41924;DHT22;27613;48.116;11.656;2023-04-29T14:52:36;22.70;58.80
41924;DHT22;27613;48.116;11.656;2023-04-29T14:55:02;22.40;59.30
41924;DHT22;27613;48.116;11.656;2023-04-29T14:57:27;22.10;62.10
41924;DHT22;27613;48.116;11.656;2023-04-29T14:59:54;21.30;61.90
41924;DHT22;27613;48.116;11.656;2023-04-29T15:02:20;20.90;63.50
41924;DHT22;27613;48.116;11.656;2023-04-29T15:04:45;21.60;62.80
41924;DHT22;27613;48.116;11.656;2023-04-29T15:07:14;22.70;60.60
41924;DHT22;27613;48.116;11.656;2023-04-29T15:09:41;24.70;58.70
41924;DHT22;27613;48.116;11.656;2023-04-29T15:12:07;25.10;55.00
41924;DHT22;27613;48.116;11.656;2023-04-29T15:14:33;24.40;56.90
41924;DHT22;27613;48.116;11.656;2023-04-29T15:16:58;23.90;56.30
41924;DHT22;27613;48.116;11.656;2023-04-29T15:19:24;23.50;56.70
41924;DHT22;27613;48.116;11.656;2023-04-29T15:21:50;24.10;57.10
41924;DHT22;27613;48.116;11.656;2023-04-29T15:24:16;23.70;56.00
41924;DHT22;27613;48.116;11.656;2023-04-29T15:26:42;22.50;57.40
41924;DHT22;27613;48.116;11.656;2023-04-29T15:29:08;23.00;56.40
41924;DHT22;27613;48.116;11.656;2023-04-29T15:31:33;22.30;58.90